Terminal Aerodrome Forecast
Issued by NWS Mt. Holly, NJ

Home | Current Version | Previous Version | Text Only | Print | Product List | Glossary On
Versions: 1 2 3 4 5 6 7 8 9 10 11 12 13 14 15 16 17
000
FTUS41 KPHI 281145
TAFRDG
TAF
KRDG 281145Z 2812/2912 VRB03KT P6SM SCT250
     FM281700 23004KT P6SM SCT050
      TEMPO 2819/2822 3SM SHRA BKN035
     FM282300 VRB03KT P6SM BKN050
      TEMPO 2902/2905 3SM -SHRA BR OVC035
     FM290600 VRB03KT 4SM SHRA BR OVC025
     FM290900 33006KT 2SM +SHRA BR OVC015=

USA.gov is the U.S. government's official web portal to all federal, state and local government web resources and services.